sensor_id;sensor_type;location;lat;lon;timestamp;P1;durP1;ratioP1;P2;durP2;ratioP2
72926;SDS011;61071;51.618;19.388;2022-09-01T00:02:22;8.75;;;4.47;;
72926;SDS011;61071;51.618;19.388;2022-09-01T00:04:51;10.90;;;4.88;;
72926;SDS011;61071;51.618;19.388;2022-09-01T00:07:25;12.57;;;5.22;;
72926;SDS011;61071;51.618;19.388;2022-09-01T00:09:56;14.05;;;5.00;;
72926;SDS011;61071;51.618;19.388;2022-09-01T00:12:28;12.15;;;5.65;;
72926;SDS011;61071;51.618;19.388;2022-09-01T00:14:54;12.40;;;5.13;;
72926;SDS011;61071;51.618;19.388;2022-09-01T00:17:20;10.38;;;5.28;;
72926;SDS011;61071;51.618;19.388;2022-09-01T00:19:46;11.82;;;5.22;;
72926;SDS011;61071;51.618;19.388;2022-09-01T00:22:12;17.50;;;5.38;;
72926;SDS011;61071;51.618;19.388;2022-09-01T00:24:38;11.63;;;4.78;;
72926;SDS011;61071;51.618;19.388;2022-09-01T00:27:04;10.00;;;4.82;;
72926;SDS011;61071;51.618;19.388;2022-09-01T00:29:29;13.13;;;5.55;;
72926;SDS011;61071;51.618;19.388;2022-09-01T00:31:55;14.30;;;5.40;;
72926;SDS011;61071;51.618;19.388;2022-09-01T00:34:21;18.75;;;5.40;;
72926;SDS011;61071;51.618;19.388;2022-09-01T00:36:47;11.38;;;5.38;;
72926;SDS011;61071;51.618;19.388;2022-09-01T00:39:12;12.90;;;5.10;;
72926;SDS011;61071;51.618;19.388;2022-09-01T00:41:39;9.40;;;3.50;;
72926;SDS011;61071;51.618;19.388;2022-09-01T00:44:09;7.13;;;3.40;;
72926;SDS011;61071;51.618;19.388;2022-09-01T00:46:44;6.70;;;3.35;;
72926;SDS011;61071;51.618;19.388;2022-09-01T00:49:17;5.97;;;2.97;;
72926;SDS011;61071;51.618;19.388;2022-09-01T00:51:59;4.97;;;2.35;;
72926;SDS011;61071;51.618;19.388;2022-09-01T00:54:35;3.42;;;2.20;;
72926;SDS011;61071;51.618;19.388;2022-09-01T00:57:06;7.38;;;2.45;;
72926;SDS011;61071;51.618;19.388;2022-09-01T00:59:34;4.68;;;2.03;;
72926;SDS011;61071;51.618;19.388;2022-09-01T01:02:06;3.85;;;2.33;;
72926;SDS011;61071;51.618;19.388;2022-09-01T01:04:33;5.95;;;2.00;;
72926;SDS011;61071;51.618;19.388;2022-09-01T01:06:59;2.83;;;1.85;;
72926;SDS011;61071;51.618;19.388;2022-09-01T01:09:28;4.82;;;1.95;;
72926;SDS011;61071;51.618;19.388;2022-09-01T01:12:00;7.38;;;2.10;;
72926;SDS011;61071;51.618;19.388;2022-09-01T01:14:29;6.70;;;2.17;;
72926;SDS011;61071;51.618;19.388;2022-09-01T01:16:56;4.03;;;2.00;;
72926;SDS011;61071;51.618;19.388;2022-09-01T01:19:43;3.13;;;1.58;;
72926;SDS011;61071;51.618;19.388;2022-09-01T01:22:34;3.58;;;1.50;;
72926;SDS011;61071;51.618;19.388;2022-09-01T01:25:26;4.75;;;1.95;;
72926;SDS011;61071;51.618;19.388;2022-09-01T01:28:04;4.25;;;1.92;;
72926;SDS011;61071;51.618;19.388;2022-09-01T01:30:46;3.47;;;1.58;;
72926;SDS011;61071;51.618;19.388;2022-09-01T01:33:17;3.45;;;1.73;;
72926;SDS011;61071;51.618;19.388;2022-09-01T01:35:47;5.53;;;1.80;;
72926;SDS011;61071;51.618;19.388;2022-09-01T01:38:15;5.50;;;1.98;;
72926;SDS011;61071;51.618;19.388;2022-09-01T01:40:46;4.00;;;1.85;;
72926;SDS011;61071;51.618;19.388;2022-09-01T01:43:13;3.08;;;1.80;;
72926;SDS011;61071;51.618;19.388;2022-09-01T01:45:44;3.72;;;1.77;;
72926;SDS011;61071;51.618;19.388;2022-09-01T01:48:13;3.40;;;1.83;;
72926;SDS011;61071;51.618;19.388;2022-09-01T01:50:46;4.22;;;2.40;;
72926;SDS011;61071;51.618;19.388;2022-09-01T01:53:13;4.38;;;1.80;;
72926;SDS011;61071;51.618;19.388;2022-09-01T01:55:42;7.32;;;2.10;;
72926;SDS011;61071;51.618;19.388;2022-09-01T01:58:08;6.97;;;1.90;;
72926;SDS011;61071;51.618;19.388;2022-09-01T02:00:39;4.30;;;1.70;;
72926;SDS011;61071;51.618;19.388;2022-09-01T02:03:08;4.13;;;1.80;;
72926;SDS011;61071;51.618;19.388;2022-09-01T02:05:37;5.63;;;2.10;;
72926;SDS011;61071;51.618;19.388;2022-09-01T02:08:05;4.28;;;1.58;;
72926;SDS011;61071;51.618;19.388;2022-09-01T02:10:35;5.57;;;1.73;;
72926;SDS011;61071;51.618;19.388;2022-09-01T02:13:07;10.40;;;1.90;;
72926;SDS011;61071;51.618;19.388;2022-09-01T02:15:41;3.00;;;1.70;;
72926;SDS011;61071;51.618;19.388;2022-09-01T02:18:15;4.85;;;1.95;;
72926;SDS011;61071;51.618;19.388;2022-09-01T02:20:46;2.67;;;1.95;;
72926;SDS011;61071;51.618;19.388;2022-09-01T02:23:14;4.63;;;1.80;;
72926;SDS011;61071;51.618;19.388;2022-09-01T02:25:47;4.88;;;1.70;;
72926;SDS011;61071;51.618;19.388;2022-09-01T02:28:17;2.63;;;1.65;;
72926;SDS011;61071;51.618;19.388;2022-09-01T02:30:48;3.53;;;1.67;;
72926;SDS011;61071;51.618;19.388;2022-09-01T02:33:18;8.90;;;1.75;;
72926;SDS011;61071;51.618;19.388;2022-09-01T02:36:09;2.75;;;1.50;;
72926;SDS011;61071;51.618;19.388;2022-09-01T02:38:38;6.32;;;1.88;;
72926;SDS011;61071;51.618;19.388;2022-09-01T02:41:07;3.65;;;1.80;;
72926;SDS011;61071;51.618;19.388;2022-09-01T02:43:33;4.53;;;2.00;;
72926;SDS011;61071;51.618;19.388;2022-09-01T02:45:59;6.07;;;2.20;;
72926;SDS011;61071;51.618;19.388;2022-09-01T02:48:33;4.93;;;2.08;;
72926;SDS011;61071;51.618;19.388;2022-09-01T02:51:06;3.53;;;2.10;;
72926;SDS011;61071;51.618;19.388;2022-09-01T02:53:36;10.80;;;2.25;;
72926;SDS011;61071;51.618;19.388;2022-09-01T02:56:04;6.40;;;1.92;;
72926;SDS011;61071;51.618;19.388;2022-09-01T02:58:39;3.17;;;1.80;;
72926;SDS011;61071;51.618;19.388;2022-09-01T03:01:24;5.75;;;2.28;;
72926;SDS011;61071;51.618;19.388;2022-09-01T03:03:55;12.45;;;2.10;;
72926;SDS011;61071;51.618;19.388;2022-09-01T03:06:27;5.20;;;2.33;;
72926;SDS011;61071;51.618;19.388;2022-09-01T03:08:58;6.75;;;2.55;;
72926;SDS011;61071;51.618;19.388;2022-09-01T03:11:25;6.20;;;2.17;;
72926;SDS011;61071;51.618;19.388;2022-09-01T03:13:54;7.03;;;2.28;;
72926;SDS011;61071;51.618;19.388;2022-09-01T03:16:20;5.38;;;2.40;;
72926;SDS011;61071;51.618;19.388;2022-09-01T03:18:46;5.07;;;2.00;;
72926;SDS011;61071;51.618;19.388;2022-09-01T03:21:13;4.78;;;1.75;;
72926;SDS011;61071;51.618;19.388;2022-09-01T03:23:41;5.00;;;1.90;;
72926;SDS011;61071;51.618;19.388;2022-09-01T03:26:09;5.20;;;2.20;;
72926;SDS011;61071;51.618;19.388;2022-09-01T03:28:35;6.32;;;2.30;;
72926;SDS011;61071;51.618;19.388;2022-09-01T03:31:04;4.20;;;2.00;;
72926;SDS011;61071;51.618;19.388;2022-09-01T03:33:31;4.32;;;1.58;;
72926;SDS011;61071;51.618;19.388;2022-09-01T03:35:58;3.10;;;1.98;;
72926;SDS011;61071;51.618;19.388;2022-09-01T03:38:25;3.15;;;1.90;;
72926;SDS011;61071;51.618;19.388;2022-09-01T03:40:55;5.15;;;1.90;;
72926;SDS011;61071;51.618;19.388;2022-09-01T03:43:26;8.23;;;2.03;;
72926;SDS011;61071;51.618;19.388;2022-09-01T03:45:57;3.72;;;2.05;;
72926;SDS011;61071;51.618;19.388;2022-09-01T03:48:25;4.65;;;2.00;;
72926;SDS011;61071;51.618;19.388;2022-09-01T03:50:54;6.28;;;2.15;;
72926;SDS011;61071;51.618;19.388;2022-09-01T03:53:27;11.40;;;2.20;;
72926;SDS011;61071;51.618;19.388;2022-09-01T03:55:55;9.30;;;2.83;;
72926;SDS011;61071;51.618;19.388;2022-09-01T03:58:21;2.75;;;1.90;;
72926;SDS011;61071;51.618;19.388;2022-09-01T04:00:49;6.22;;;1.90;;
72926;SDS011;61071;51.618;19.388;2022-09-01T04:03:22;4.10;;;2.00;;
72926;SDS011;61071;51.618;19.388;2022-09-01T04:05:52;3.35;;;2.20;;
72926;SDS011;61071;51.618;19.388;2022-09-01T04:08:19;9.10;;;2.33;;
72926;SDS011;61071;51.618;19.388;2022-09-01T04:10:52;3.95;;;2.42;;
72926;SDS011;61071;51.618;19.388;2022-09-01T04:13:20;3.03;;;1.75;;
72926;SDS011;61071;51.618;19.388;2022-09-01T04:15:56;4.75;;;1.88;;
72926;SDS011;61071;51.618;19.388;2022-09-01T04:18:23;5.65;;;2.17;;
72926;SDS011;61071;51.618;19.388;2022-09-01T04:20:53;4.95;;;2.08;;
72926;SDS011;61071;51.618;19.388;2022-09-01T04:23:24;2.50;;;1.83;;
72926;SDS011;61071;51.618;19.388;2022-09-01T04:25:57;6.97;;;2.25;;
72926;SDS011;61071;51.618;19.388;2022-09-01T04:28:36;4.65;;;1.92;;
72926;SDS011;61071;51.618;19.388;2022-09-01T04:31:06;3.55;;;2.20;;
72926;SDS011;61071;51.618;19.388;2022-09-01T04:33:39;3.53;;;1.90;;
72926;SDS011;61071;51.618;19.388;2022-09-01T04:36:06;1.83;;;1.67;;
72926;SDS011;61071;51.618;19.388;2022-09-01T04:38:43;5.80;;;1.80;;
72926;SDS011;61071;51.618;19.388;2022-09-01T04:41:19;5.50;;;2.20;;
72926;SDS011;61071;51.618;19.388;2022-09-01T04:43:49;5.65;;;1.92;;
72926;SDS011;61071;51.618;19.388;2022-09-01T04:46:20;3.03;;;1.58;;
72926;SDS011;61071;51.618;19.388;2022-09-01T04:48:47;3.33;;;1.85;;
72926;SDS011;61071;51.618;19.388;2022-09-01T04:51:15;4.07;;;2.50;;
72926;SDS011;61071;51.618;19.388;2022-09-01T04:53:42;4.35;;;2.10;;
72926;SDS011;61071;51.618;19.388;2022-09-01T04:56:13;6.45;;;2.53;;
72926;SDS011;61071;51.618;19.388;2022-09-01T04:58:47;7.28;;;2.65;;
72926;SDS011;61071;51.618;19.388;2022-09-01T05:01:15;3.97;;;2.22;;
72926;SDS011;61071;51.618;19.388;2022-09-01T05:03:44;6.00;;;2.40;;
72926;SDS011;61071;51.618;19.388;2022-09-01T05:06:16;7.18;;;2.33;;
72926;SDS011;61071;51.618;19.388;2022-09-01T05:08:44;3.35;;;2.25;;
72926;SDS011;61071;51.618;19.388;2022-09-01T05:11:10;6.43;;;2.05;;
72926;SDS011;61071;51.618;19.388;2022-09-01T05:13:41;5.10;;;2.33;;
72926;SDS011;61071;51.618;19.388;2022-09-01T05:16:10;5.88;;;2.40;;
72926;SDS011;61071;51.618;19.388;2022-09-01T05:18:40;5.57;;;2.28;;
72926;SDS011;61071;51.618;19.388;2022-09-01T05:21:13;5.15;;;2.28;;
72926;SDS011;61071;51.618;19.388;2022-09-01T05:23:42;6.57;;;2.63;;
72926;SDS011;61071;51.618;19.388;2022-09-01T05:26:17;7.07;;;2.25;;
72926;SDS011;61071;51.618;19.388;2022-09-01T05:28:51;6.07;;;2.45;;
72926;SDS011;61071;51.618;19.388;2022-09-01T05:31:21;5.85;;;2.60;;
72926;SDS011;61071;51.618;19.388;2022-09-01T05:33:49;8.10;;;2.10;;
72926;SDS011;61071;51.618;19.388;2022-09-01T05:36:17;5.32;;;2.00;;
72926;SDS011;61071;51.618;19.388;2022-09-01T05:38:46;6.78;;;2.63;;
72926;SDS011;61071;51.618;19.388;2022-09-01T05:41:14;7.95;;;3.00;;
72926;SDS011;61071;51.618;19.388;2022-09-01T05:43:43;6.45;;;2.22;;
72926;SDS011;61071;51.618;19.388;2022-09-01T05:46:14;7.53;;;2.60;;
72926;SDS011;61071;51.618;19.388;2022-09-01T05:48:47;6.60;;;2.83;;
72926;SDS011;61071;51.618;19.388;2022-09-01T05:51:16;7.70;;;2.50;;
72926;SDS011;61071;51.618;19.388;2022-09-01T05:53:51;13.23;;;2.55;;
72926;SDS011;61071;51.618;19.388;2022-09-01T05:56:20;4.65;;;2.00;;
72926;SDS011;61071;51.618;19.388;2022-09-01T05:58:48;3.85;;;1.90;;
72926;SDS011;61071;51.618;19.388;2022-09-01T06:01:15;5.32;;;1.60;;
72926;SDS011;61071;51.618;19.388;2022-09-01T06:03:49;5.15;;;1.60;;
72926;SDS011;61071;51.618;19.388;2022-09-01T06:07:01;4.15;;;1.70;;
72926;SDS011;61071;51.618;19.388;2022-09-01T06:09:11;7.28;;;1.60;;
72926;SDS011;61071;51.618;19.388;2022-09-01T06:11:42;6.88;;;1.60;;
72926;SDS011;61071;51.618;19.388;2022-09-01T06:14:16;3.33;;;1.60;;
72926;SDS011;61071;51.618;19.388;2022-09-01T06:16:42;3.67;;;1.33;;
72926;SDS011;61071;51.618;19.388;2022-09-01T06:19:08;2.90;;;1.15;;
72926;SDS011;61071;51.618;19.388;2022-09-01T06:21:35;11.65;;;2.17;;
72926;SDS011;61071;51.618;19.388;2022-09-01T06:24:03;13.18;;;1.35;;
72926;SDS011;61071;51.618;19.388;2022-09-01T06:26:32;5.68;;;1.38;;
72926;SDS011;61071;51.618;19.388;2022-09-01T06:29:04;7.97;;;1.58;;
72926;SDS011;61071;51.618;19.388;2022-09-01T06:31:34;3.28;;;1.17;;
72926;SDS011;61071;51.618;19.388;2022-09-01T06:34:03;4.43;;;1.45;;
72926;SDS011;61071;51.618;19.388;2022-09-01T06:36:34;4.93;;;1.30;;
72926;SDS011;61071;51.618;19.388;2022-09-01T06:39:02;3.40;;;1.10;;
72926;SDS011;61071;51.618;19.388;2022-09-01T06:41:29;3.35;;;1.30;;
72926;SDS011;61071;51.618;19.388;2022-09-01T06:43:55;5.03;;;1.27;;
72926;SDS011;61071;51.618;19.388;2022-09-01T06:46:22;2.75;;;1.10;;
72926;SDS011;61071;51.618;19.388;2022-09-01T06:48:51;3.28;;;1.25;;
72926;SDS011;61071;51.618;19.388;2022-09-01T06:51:21;6.63;;;1.63;;
72926;SDS011;61071;51.618;19.388;2022-09-01T06:53:48;1.50;;;1.02;;
72926;SDS011;61071;51.618;19.388;2022-09-01T06:56:21;6.90;;;1.60;;
72926;SDS011;61071;51.618;19.388;2022-09-01T06:58:50;1.38;;;1.00;;
72926;SDS011;61071;51.618;19.388;2022-09-01T07:01:18;2.42;;;1.25;;
72926;SDS011;61071;51.618;19.388;2022-09-01T07:03:47;2.65;;;1.05;;
72926;SDS011;61071;51.618;19.388;2022-09-01T07:06:17;3.15;;;1.27;;
72926;SDS011;61071;51.618;19.388;2022-09-01T07:08:51;6.03;;;1.67;;
72926;SDS011;61071;51.618;19.388;2022-09-01T07:11:21;2.60;;;1.02;;
72926;SDS011;61071;51.618;19.388;2022-09-01T07:13:55;2.75;;;1.20;;
72926;SDS011;61071;51.618;19.388;2022-09-01T07:16:29;4.78;;;1.10;;
72926;SDS011;61071;51.618;19.388;2022-09-01T07:18:59;2.03;;;0.90;;
72926;SDS011;61071;51.618;19.388;2022-09-01T07:21:27;1.75;;;0.88;;
72926;SDS011;61071;51.618;19.388;2022-09-01T07:23:56;3.63;;;1.15;;
72926;SDS011;61071;51.618;19.388;2022-09-01T07:26:25;2.55;;;1.10;;
72926;SDS011;61071;51.618;19.388;2022-09-01T07:28:53;4.70;;;1.20;;
72926;SDS011;61071;51.618;19.388;2022-09-01T07:31:20;2.67;;;1.27;;
72926;SDS011;61071;51.618;19.388;2022-09-01T07:34:03;5.55;;;1.25;;
72926;SDS011;61071;51.618;19.388;2022-09-01T07:36:36;1.95;;;1.05;;
72926;SDS011;61071;51.618;19.388;2022-09-01T07:39:04;2.55;;;1.10;;
72926;SDS011;61071;51.618;19.388;2022-09-01T07:41:31;2.83;;;1.15;;
72926;SDS011;61071;51.618;19.388;2022-09-01T07:43:59;5.07;;;1.13;;
72926;SDS011;61071;51.618;19.388;2022-09-01T07:46:27;2.88;;;1.00;;
72926;SDS011;61071;51.618;19.388;2022-09-01T07:48:57;2.13;;;0.98;;
72926;SDS011;61071;51.618;19.388;2022-09-01T07:51:25;3.13;;;1.15;;
72926;SDS011;61071;51.618;19.388;2022-09-01T07:53:53;2.38;;;0.90;;
72926;SDS011;61071;51.618;19.388;2022-09-01T07:56:20;6.43;;;1.00;;
72926;SDS011;61071;51.618;19.388;2022-09-01T07:58:48;2.83;;;0.98;;
72926;SDS011;61071;51.618;19.388;2022-09-01T08:01:17;4.28;;;1.10;;
72926;SDS011;61071;51.618;19.388;2022-09-01T08:03:50;6.45;;;1.10;;
72926;SDS011;61071;51.618;19.388;2022-09-01T08:06:22;4.50;;;1.00;;
72926;SDS011;61071;51.618;19.388;2022-09-01T08:08:52;1.95;;;0.95;;
72926;SDS011;61071;51.618;19.388;2022-09-01T08:11:21;2.65;;;1.00;;
72926;SDS011;61071;51.618;19.388;2022-09-01T08:13:53;1.50;;;0.95;;
72926;SDS011;61071;51.618;19.388;2022-09-01T08:16:23;1.40;;;1.10;;
72926;SDS011;61071;51.618;19.388;2022-09-01T08:18:53;2.45;;;1.17;;
72926;SDS011;61071;51.618;19.388;2022-09-01T08:21:19;2.72;;;1.13;;
72926;SDS011;61071;51.618;19.388;2022-09-01T08:23:47;3.47;;;1.35;;
72926;SDS011;61071;51.618;19.388;2022-09-01T08:26:16;11.70;;;1.00;;
72926;SDS011;61071;51.618;19.388;2022-09-01T08:28:47;13.63;;;3.28;;
72926;SDS011;61071;51.618;19.388;2022-09-01T08:31:14;3.88;;;1.23;;
72926;SDS011;61071;51.618;19.388;2022-09-01T08:33:42;6.38;;;1.10;;
72926;SDS011;61071;51.618;19.388;2022-09-01T08:36:12;1.90;;;0.93;;
72926;SDS011;61071;51.618;19.388;2022-09-01T08:38:41;0.75;;;0.70;;
72926;SDS011;61071;51.618;19.388;2022-09-01T08:41:18;3.95;;;1.17;;
72926;SDS011;61071;51.618;19.388;2022-09-01T08:47:03;1.35;;;0.88;;
72926;SDS011;61071;51.618;19.388;2022-09-01T08:49:34;6.57;;;0.95;;
72926;SDS011;61071;51.618;19.388;2022-09-01T08:55:11;7.57;;;4.50;;
72926;SDS011;61071;51.618;19.388;2022-09-01T08:57:45;7.35;;;2.83;;
72926;SDS011;61071;51.618;19.388;2022-09-01T09:00:15;2.70;;;0.90;;
72926;SDS011;61071;51.618;19.388;2022-09-01T09:17:07;3.15;;;1.20;;
72926;SDS011;61071;51.618;19.388;2022-09-01T09:19:36;5.22;;;1.65;;
72926;SDS011;61071;51.618;19.388;2022-09-01T09:22:09;4.68;;;1.30;;
72926;SDS011;61071;51.618;19.388;2022-09-01T09:27:34;2.72;;;1.13;;
72926;SDS011;61071;51.618;19.388;2022-09-01T09:40:58;5.03;;;1.00;;
72926;SDS011;61071;51.618;19.388;2022-09-01T09:43:24;3.67;;;1.17;;
72926;SDS011;61071;51.618;19.388;2022-09-01T09:46:18;3.97;;;1.10;;
72926;SDS011;61071;51.618;19.388;2022-09-01T09:51:46;3.70;;;0.90;;
72926;SDS011;61071;51.618;19.388;2022-09-01T09:59:46;1.45;;;0.80;;
72926;SDS011;61071;51.618;19.388;2022-09-01T10:02:38;1.58;;;0.90;;
72926;SDS011;61071;51.618;19.388;2022-09-01T10:07:58;1.92;;;0.80;;
72926;SDS011;61071;51.618;19.388;2022-09-01T10:13:15;9.43;;;1.38;;
72926;SDS011;61071;51.618;19.388;2022-09-01T10:15:47;3.15;;;0.70;;
72926;SDS011;61071;51.618;19.388;2022-09-01T10:18:18;4.43;;;1.13;;
72926;SDS011;61071;51.618;19.388;2022-09-01T10:20:59;3.40;;;0.98;;
72926;SDS011;61071;51.618;19.388;2022-09-01T10:23:32;2.03;;;1.10;;
72926;SDS011;61071;51.618;19.388;2022-09-01T10:26:02;3.53;;;0.93;;
72926;SDS011;61071;51.618;19.388;2022-09-01T10:28:58;18.97;;;1.00;;
72926;SDS011;61071;51.618;19.388;2022-09-01T10:31:30;11.52;;;1.48;;
72926;SDS011;61071;51.618;19.388;2022-09-01T10:33:56;1.27;;;0.75;;
72926;SDS011;61071;51.618;19.388;2022-09-01T10:36:26;1.45;;;0.90;;
72926;SDS011;61071;51.618;19.388;2022-09-01T10:38:53;1.73;;;0.73;;
72926;SDS011;61071;51.618;19.388;2022-09-01T10:44:18;2.90;;;0.77;;
72926;SDS011;61071;51.618;19.388;2022-09-01T10:46:45;1.77;;;0.60;;
72926;SDS011;61071;51.618;19.388;2022-09-01T10:51:52;1.77;;;0.90;;
72926;SDS011;61071;51.618;19.388;2022-09-01T10:59:43;3.92;;;1.00;;
72926;SDS011;61071;51.618;19.388;2022-09-01T11:02:18;3.95;;;0.88;;
72926;SDS011;61071;51.618;19.388;2022-09-01T11:18:54;1.42;;;0.80;;
72926;SDS011;61071;51.618;19.388;2022-09-01T11:21:40;1.30;;;0.75;;
72926;SDS011;61071;51.618;19.388;2022-09-01T11:27:04;2.30;;;0.90;;
72926;SDS011;61071;51.618;19.388;2022-09-01T11:29:51;2.35;;;0.90;;
72926;SDS011;61071;51.618;19.388;2022-09-01T11:32:25;7.32;;;0.80;;
72926;SDS011;61071;51.618;19.388;2022-09-01T11:34:58;2.38;;;0.93;;
72926;SDS011;61071;51.618;19.388;2022-09-01T11:37:29;6.35;;;1.15;;
72926;SDS011;61071;51.618;19.388;2022-09-01T11:39:58;4.13;;;0.85;;
72926;SDS011;61071;51.618;19.388;2022-09-01T11:42:33;2.85;;;0.80;;
72926;SDS011;61071;51.618;19.388;2022-09-01T11:45:14;0.80;;;0.60;;
72926;SDS011;61071;51.618;19.388;2022-09-01T11:47:54;1.88;;;0.68;;
72926;SDS011;61071;51.618;19.388;2022-09-01T11:53:07;5.30;;;0.90;;
72926;SDS011;61071;51.618;19.388;2022-09-01T11:55:40;3.90;;;0.73;;
72926;SDS011;61071;51.618;19.388;2022-09-01T11:58:13;1.85;;;1.10;;
72926;SDS011;61071;51.618;19.388;2022-09-01T12:04:06;2.72;;;0.90;;
72926;SDS011;61071;51.618;19.388;2022-09-01T12:06:55;0.65;;;0.60;;
72926;SDS011;61071;51.618;19.388;2022-09-01T12:09:30;1.27;;;0.70;;
72926;SDS011;61071;51.618;19.388;2022-09-01T12:12:07;1.88;;;0.70;;
72926;SDS011;61071;51.618;19.388;2022-09-01T12:15:08;4.90;;;0.95;;
72926;SDS011;61071;51.618;19.388;2022-09-01T12:17:48;0.60;;;0.60;;
72926;SDS011;61071;51.618;19.388;2022-09-01T12:20:18;1.48;;;0.73;;
72926;SDS011;61071;51.618;19.388;2022-09-01T12:22:50;1.33;;;0.70;;
72926;SDS011;61071;51.618;19.388;2022-09-01T12:25:20;3.28;;;0.95;;
72926;SDS011;61071;51.618;19.388;2022-09-01T12:27:50;1.55;;;0.57;;
72926;SDS011;61071;51.618;19.388;2022-09-01T12:30:16;2.17;;;0.82;;
72926;SDS011;61071;51.618;19.388;2022-09-01T12:32:43;5.32;;;1.10;;
72926;SDS011;61071;51.618;19.388;2022-09-01T12:35:20;3.38;;;0.98;;
72926;SDS011;61071;51.618;19.388;2022-09-01T12:37:49;2.00;;;0.80;;
72926;SDS011;61071;51.618;19.388;2022-09-01T12:40:34;4.95;;;0.98;;
72926;SDS011;61071;51.618;19.388;2022-09-01T12:43:00;5.15;;;0.90;;
72926;SDS011;61071;51.618;19.388;2022-09-01T12:45:40;2.13;;;0.85;;
72926;SDS011;61071;51.618;19.388;2022-09-01T12:51:17;3.40;;;0.65;;
72926;SDS011;61071;51.618;19.388;2022-09-01T12:53:59;2.50;;;0.80;;
72926;SDS011;61071;51.618;19.388;2022-09-01T12:56:26;0.85;;;0.68;;
72926;SDS011;61071;51.618;19.388;2022-09-01T12:59:04;1.73;;;0.80;;
72926;SDS011;61071;51.618;19.388;2022-09-01T13:01:39;2.00;;;0.60;;
72926;SDS011;61071;51.618;19.388;2022-09-01T13:04:14;1.10;;;0.70;;
72926;SDS011;61071;51.618;19.388;2022-09-01T13:06:51;1.88;;;0.90;;
72926;SDS011;61071;51.618;19.388;2022-09-01T13:09:19;2.67;;;0.80;;
72926;SDS011;61071;51.618;19.388;2022-09-01T13:11:45;2.22;;;0.60;;
72926;SDS011;61071;51.618;19.388;2022-09-01T13:14:12;6.90;;;0.90;;
72926;SDS011;61071;51.618;19.388;2022-09-01T13:16:39;3.00;;;0.60;;
72926;SDS011;61071;51.618;19.388;2022-09-01T13:19:06;1.00;;;0.70;;
72926;SDS011;61071;51.618;19.388;2022-09-01T13:21:32;5.22;;;0.90;;
72926;SDS011;61071;51.618;19.388;2022-09-01T13:23:59;2.75;;;0.90;;
72926;SDS011;61071;51.618;19.388;2022-09-01T13:26:29;3.70;;;0.90;;
72926;SDS011;61071;51.618;19.388;2022-09-01T13:28:56;1.85;;;0.85;;
72926;SDS011;61071;51.618;19.388;2022-09-01T13:31:22;2.05;;;0.88;;
72926;SDS011;61071;51.618;19.388;2022-09-01T13:33:48;3.03;;;0.82;;
72926;SDS011;61071;51.618;19.388;2022-09-01T13:36:14;3.78;;;0.93;;
72926;SDS011;61071;51.618;19.388;2022-09-01T13:38:40;4.93;;;0.98;;
72926;SDS011;61071;51.618;19.388;2022-09-01T13:41:05;4.80;;;1.20;;
72926;SDS011;61071;51.618;19.388;2022-09-01T13:43:35;3.85;;;0.98;;
72926;SDS011;61071;51.618;19.388;2022-09-01T13:46:01;2.78;;;1.02;;
72926;SDS011;61071;51.618;19.388;2022-09-01T13:48:26;10.38;;;1.25;;
72926;SDS011;61071;51.618;19.388;2022-09-01T13:50:53;5.35;;;1.08;;
72926;SDS011;61071;51.618;19.388;2022-09-01T13:53:19;5.47;;;0.93;;
72926;SDS011;61071;51.618;19.388;2022-09-01T13:55:46;2.88;;;0.93;;
72926;SDS011;61071;51.618;19.388;2022-09-01T13:58:13;7.47;;;1.20;;
72926;SDS011;61071;51.618;19.388;2022-09-01T14:00:40;4.32;;;1.05;;
72926;SDS011;61071;51.618;19.388;2022-09-01T14:03:12;4.22;;;1.10;;
72926;SDS011;61071;51.618;19.388;2022-09-01T14:05:45;5.95;;;1.20;;
72926;SDS011;61071;51.618;19.388;2022-09-01T14:08:14;5.82;;;1.10;;
72926;SDS011;61071;51.618;19.388;2022-09-01T14:10:44;1.50;;;1.00;;
72926;SDS011;61071;51.618;19.388;2022-09-01T14:13:14;1.80;;;1.13;;
72926;SDS011;61071;51.618;19.388;2022-09-01T14:15:40;5.57;;;1.13;;
72926;SDS011;61071;51.618;19.388;2022-09-01T14:18:08;3.22;;;1.15;;
72926;SDS011;61071;51.618;19.388;2022-09-01T14:20:35;4.03;;;1.27;;
72926;SDS011;61071;51.618;19.388;2022-09-01T14:23:06;1.35;;;0.98;;
72926;SDS011;61071;51.618;19.388;2022-09-01T14:25:41;3.22;;;1.35;;
72926;SDS011;61071;51.618;19.388;2022-09-01T14:28:13;1.88;;;1.30;;
72926;SDS011;61071;51.618;19.388;2022-09-01T14:30:40;1.85;;;1.20;;
72926;SDS011;61071;51.618;19.388;2022-09-01T14:33:07;5.43;;;1.40;;
72926;SDS011;61071;51.618;19.388;2022-09-01T14:35:35;4.65;;;1.40;;
72926;SDS011;61071;51.618;19.388;2022-09-01T14:38:04;2.97;;;1.38;;
72926;SDS011;61071;51.618;19.388;2022-09-01T14:40:32;5.22;;;1.60;;
72926;SDS011;61071;51.618;19.388;2022-09-01T14:43:01;6.63;;;1.27;;
72926;SDS011;61071;51.618;19.388;2022-09-01T14:45:33;3.55;;;1.30;;
72926;SDS011;61071;51.618;19.388;2022-09-01T14:48:01;2.67;;;1.00;;
72926;SDS011;61071;51.618;19.388;2022-09-01T14:50:29;2.38;;;1.17;;
72926;SDS011;61071;51.618;19.388;2022-09-01T14:52:56;5.85;;;1.63;;
72926;SDS011;61071;51.618;19.388;2022-09-01T14:55:25;2.67;;;1.50;;
72926;SDS011;61071;51.618;19.388;2022-09-01T14:57:53;3.28;;;1.90;;
72926;SDS011;61071;51.618;19.388;2022-09-01T15:00:19;5.20;;;2.30;;
72926;SDS011;61071;51.618;19.388;2022-09-01T15:02:46;6.28;;;2.40;;
72926;SDS011;61071;51.618;19.388;2022-09-01T15:05:13;7.20;;;2.33;;
72926;SDS011;61071;51.618;19.388;2022-09-01T15:07:40;2.70;;;1.63;;
72926;SDS011;61071;51.618;19.388;2022-09-01T15:10:07;2.95;;;1.50;;
72926;SDS011;61071;51.618;19.388;2022-09-01T15:12:36;4.35;;;1.33;;
72926;SDS011;61071;51.618;19.388;2022-09-01T15:15:03;5.10;;;1.15;;
72926;SDS011;61071;51.618;19.388;2022-09-01T15:17:32;4.55;;;1.58;;
72926;SDS011;61071;51.618;19.388;2022-09-01T15:19:59;4.03;;;1.38;;
72926;SDS011;61071;51.618;19.388;2022-09-01T15:22:46;3.15;;;1.10;;
72926;SDS011;61071;51.618;19.388;2022-09-01T15:25:14;3.45;;;1.23;;
72926;SDS011;61071;51.618;19.388;2022-09-01T15:27:41;6.40;;;1.70;;
72926;SDS011;61071;51.618;19.388;2022-09-01T15:30:07;4.53;;;1.40;;
72926;SDS011;61071;51.618;19.388;2022-09-01T15:32:41;2.47;;;1.20;;
72926;SDS011;61071;51.618;19.388;2022-09-01T15:35:12;3.05;;;1.08;;
72926;SDS011;61071;51.618;19.388;2022-09-01T15:37:39;4.18;;;1.20;;
72926;SDS011;61071;51.618;19.388;2022-09-01T15:40:05;3.92;;;1.05;;
72926;SDS011;61071;51.618;19.388;2022-09-01T15:42:33;7.57;;;1.50;;
72926;SDS011;61071;51.618;19.388;2022-09-01T15:45:01;3.17;;;1.10;;
72926;SDS011;61071;51.618;19.388;2022-09-01T15:47:31;1.25;;;0.90;;
72926;SDS011;61071;51.618;19.388;2022-09-01T15:49:57;3.10;;;0.80;;
72926;SDS011;61071;51.618;19.388;2022-09-01T15:52:22;1.77;;;1.08;;
72926;SDS011;61071;51.618;19.388;2022-09-01T15:54:48;3.38;;;0.90;;
72926;SDS011;61071;51.618;19.388;2022-09-01T15:57:14;1.70;;;0.90;;
72926;SDS011;61071;51.618;19.388;2022-09-01T15:59:40;11.25;;;0.80;;
72926;SDS011;61071;51.618;19.388;2022-09-01T16:02:07;3.05;;;0.90;;
72926;SDS011;61071;51.618;19.388;2022-09-01T16:04:33;4.13;;;0.95;;
72926;SDS011;61071;51.618;19.388;2022-09-01T16:07:00;4.65;;;1.08;;
72926;SDS011;61071;51.618;19.388;2022-09-01T16:09:25;13.02;;;1.13;;
72926;SDS011;61071;51.618;19.388;2022-09-01T16:11:52;3.42;;;1.00;;
72926;SDS011;61071;51.618;19.388;2022-09-01T16:14:18;1.48;;;1.05;;
72926;SDS011;61071;51.618;19.388;2022-09-01T16:22:36;3.50;;;1.30;;
72926;SDS011;61071;51.618;19.388;2022-09-01T16:25:18;4.28;;;1.30;;